Time;durP1;ratioP1;P1;durP2;ratioP2;P2;SDS_P1;SDS_P2;PMS_P1;PMS_P2;Temp;Humidity;BMP_temperature;BMP_pressure;BME280_temperature;BME280_humidity;BME280_pressure;Samples;Min_cycle;Max_cycle;Signal;HPM_P1;HPM_P2
2023/08/06 00:00:40;;;;;;;3.30;1.10;;;17.90;99.90;;;;;;4992872;28;20125;-74
2023/08/06 00:03:06;;;;;;;3.88;1.05;;;17.90;99.90;;;;;;4992595;28;20041;-74
2023/08/06 00:05:32;;;;;;;5.45;1.20;;;17.90;99.90;;;;;;4996589;28;20034;-74
2023/08/06 00:07:57;;;;;;;2.72;1.27;;;17.90;99.90;;;;;;4990739;28;20045;-73
2023/08/06 00:10:23;;;;;;;3.53;1.02;;;17.80;99.90;;;;;;4994194;28;20030;-74
2023/08/06 00:12:49;;;;;;;4.15;1.00;;;17.70;99.90;;;;;;4992252;28;20034;-74
2023/08/06 00:15:14;;;;;;;3.28;1.30;;;17.60;99.90;;;;;;4993900;28;20061;-73
2023/08/06 00:17:40;;;;;;;4.63;1.13;;;17.50;99.90;;;;;;4995104;28;20037;-74
2023/08/06 00:20:07;;;;;;;3.40;0.95;;;17.40;99.90;;;;;;4992348;28;20028;-73
2023/08/06 00:22:33;;;;;;;3.38;1.20;;;17.40;99.90;;;;;;4989800;28;20370;-74
2023/08/06 00:24:59;;;;;;;4.30;1.45;;;17.30;99.90;;;;;;4989456;28;20153;-74
2023/08/06 00:27:25;;;;;;;6.03;1.60;;;17.50;99.90;;;;;;4993609;28;20053;-74
2023/08/06 00:29:51;;;;;;;6.57;2.08;;;17.60;99.90;;;;;;4992392;28;20033;-73
2023/08/06 00:32:17;;;;;;;3.35;1.38;;;17.60;99.90;;;;;;4990968;28;20068;-73
2023/08/06 00:34:43;;;;;;;5.60;1.67;;;17.60;99.90;;;;;;4995077;28;20386;-74
2023/08/06 00:37:08;;;;;;;2.90;1.55;;;17.40;99.90;;;;;;4991258;28;20038;-74
2023/08/06 00:39:34;;;;;;;5.15;1.50;;;17.40;99.90;;;;;;4989071;28;20038;-73
2023/08/06 00:42:00;;;;;;;3.72;1.75;;;17.50;99.90;;;;;;4997214;28;20037;-73
2023/08/06 00:44:25;;;;;;;5.68;1.77;;;17.50;99.90;;;;;;4991584;28;20026;-74
2023/08/06 00:46:51;;;;;;;3.25;1.48;;;17.40;99.90;;;;;;4990330;28;20491;-74
2023/08/06 00:49:17;;;;;;;3.33;1.40;;;17.40;99.90;;;;;;4992349;28;20061;-74
2023/08/06 00:51:43;;;;;;;2.42;1.40;;;17.40;99.90;;;;;;4992155;28;20044;-74
2023/08/06 00:54:09;;;;;;;3.40;1.65;;;17.40;99.90;;;;;;4997868;28;20480;-73
2023/08/06 00:56:35;;;;;;;6.45;1.63;;;17.40;99.90;;;;;;4992386;28;20092;-73
2023/08/06 00:59:01;;;;;;;4.13;1.50;;;17.50;99.90;;;;;;4992310;28;20076;-73
2023/08/06 01:01:27;;;;;;;3.72;1.42;;;17.40;99.90;;;;;;4990068;28;20066;-73
2023/08/06 01:03:54;;;;;;;3.88;1.63;;;17.30;99.90;;;;;;4989253;28;20473;-74
2023/08/06 01:06:29;;;;;;;4.80;1.52;;;17.20;99.90;;;;;;4990585;28;20411;-74
2023/08/06 01:09:01;;;;;;;3.97;1.60;;;17.20;99.90;;;;;;4995849;28;20039;-74
2023/08/06 01:11:31;;;;;;;4.32;1.95;;;17.30;99.90;;;;;;4993946;28;20125;-73
2023/08/06 01:14:11;;;;;;;4.18;1.45;;;17.20;99.90;;;;;;4989040;28;20026;-74
2023/08/06 01:16:39;;;;;;;5.10;1.60;;;17.30;99.90;;;;;;4998194;28;20022;-74
2023/08/06 01:19:15;;;;;;;2.78;1.40;;;17.30;99.90;;;;;;4989803;28;20764;-74
2023/08/06 01:21:40;;;;;;;4.95;1.35;;;17.30;99.90;;;;;;4992034;28;20030;-73
2023/08/06 01:24:06;;;;;;;4.22;1.90;;;17.20;99.90;;;;;;4989685;28;20031;-74
2023/08/06 01:26:52;;;;;;;4.95;1.63;;;17.20;99.90;;;;;;4996162;28;20058;-74
2023/08/06 01:29:26;;;;;;;5.65;2.10;;;17.20;99.90;;;;;;4987752;28;20460;-74
2023/08/06 01:31:54;;;;;;;2.60;1.38;;;17.30;99.90;;;;;;4991591;28;20031;-73
2023/08/06 01:34:26;;;;;;;4.30;2.03;;;17.20;99.90;;;;;;4990317;28;20081;-74
2023/08/06 01:36:52;;;;;;;7.88;2.03;;;17.20;99.90;;;;;;4992416;28;20058;-73
2023/08/06 01:39:20;;;;;;;3.67;1.85;;;17.20;99.90;;;;;;4990983;28;20042;-74
2023/08/06 01:41:47;;;;;;;6.95;1.90;;;17.20;99.90;;;;;;4990338;28;20031;-73
2023/08/06 01:44:13;;;;;;;5.78;1.92;;;17.20;99.90;;;;;;4998048;28;20361;-74
2023/08/06 01:46:39;;;;;;;5.85;1.70;;;17.30;99.90;;;;;;4992293;28;20030;-74
2023/08/06 01:49:04;;;;;;;6.18;1.60;;;17.30;99.90;;;;;;4989466;28;20045;-73
2023/08/06 01:51:30;;;;;;;5.18;2.17;;;17.40;99.90;;;;;;4988988;28;20026;-74
2023/08/06 01:53:56;;;;;;;4.40;1.35;;;17.50;99.90;;;;;;4992828;28;20028;-73
2023/08/06 01:56:21;;;;;;;4.25;1.90;;;17.40;99.90;;;;;;4993274;28;20121;-73
2023/08/06 01:58:47;;;;;;;4.10;1.65;;;17.40;99.90;;;;;;4988878;28;20140;-74
2023/08/06 02:01:12;;;;;;;3.00;1.38;;;17.50;99.90;;;;;;4992422;28;20495;-73
2023/08/06 02:03:38;;;;;;;4.45;1.60;;;17.50;99.90;;;;;;4992386;28;20109;-74
2023/08/06 02:06:04;;;;;;;3.72;1.73;;;17.60;99.90;;;;;;5005857;28;20042;-74
2023/08/06 02:08:30;;;;;;;4.28;1.48;;;17.60;99.90;;;;;;4997141;28;20037;-73
2023/08/06 02:10:55;;;;;;;3.92;1.52;;;17.50;99.90;;;;;;4996538;28;20547;-74
2023/08/06 02:13:21;;;;;;;2.80;1.48;;;17.30;99.90;;;;;;4992915;28;20379;-74
2023/08/06 02:15:49;;;;;;;4.65;1.30;;;17.20;99.90;;;;;;4995021;28;20038;-74
2023/08/06 02:18:16;;;;;;;4.30;1.50;;;17.20;99.90;;;;;;4993431;28;20046;-73
2023/08/06 02:20:42;;;;;;;5.45;1.70;;;17.20;99.90;;;;;;4992709;28;20109;-74
2023/08/06 02:23:08;;;;;;;3.33;1.67;;;17.30;99.90;;;;;;4997412;28;20463;-74
2023/08/06 02:25:34;;;;;;;5.95;2.30;;;17.10;99.90;;;;;;4995017;28;20030;-74
2023/08/06 02:28:00;;;;;;;4.50;1.95;;;17.10;99.90;;;;;;4997351;28;20527;-74
2023/08/06 02:30:26;;;;;;;4.95;1.85;;;17.00;99.90;;;;;;4996148;28;20148;-73
2023/08/06 02:32:51;;;;;;;6.80;1.30;;;17.10;99.90;;;;;;4992974;28;20030;-73
2023/08/06 02:35:17;;;;;;;4.45;1.17;;;16.90;99.90;;;;;;4991691;28;20396;-74
2023/08/06 02:37:43;;;;;;;4.07;1.48;;;16.80;99.90;;;;;;4994324;28;20046;-74
2023/08/06 02:40:09;;;;;;;9.90;1.60;;;16.70;99.90;;;;;;4993847;28;20053;-74
2023/08/06 02:42:34;;;;;;;4.22;2.03;;;16.70;99.90;;;;;;4999861;28;20495;-74
2023/08/06 02:45:00;;;;;;;3.20;1.23;;;16.80;99.90;;;;;;4996469;28;20030;-74
2023/08/06 02:47:26;;;;;;;4.70;1.60;;;16.80;99.90;;;;;;4996262;28;20038;-74
2023/08/06 02:49:51;;;;;;;5.07;1.50;;;16.90;99.90;;;;;;4993378;28;20065;-73
2023/08/06 02:52:17;;;;;;;3.60;1.60;;;16.90;99.90;;;;;;4992998;28;20373;-74
2023/08/06 02:54:43;;;;;;;3.97;1.30;;;16.90;99.90;;;;;;4994228;28;20035;-74
2023/08/06 02:57:08;;;;;;;6.68;1.70;;;17.10;99.90;;;;;;4993153;28;20030;-74
2023/08/06 02:59:34;;;;;;;2.95;1.10;;;17.20;99.90;;;;;;4992193;28;20185;-74
2023/08/06 03:01:59;;;;;;;6.03;2.17;;;17.20;99.90;;;;;;4997166;28;20030;-73
2023/08/06 03:04:25;;;;;;;4.38;1.63;;;17.20;99.90;;;;;;4993044;28;20037;-74
2023/08/06 03:06:51;;;;;;;2.15;0.98;;;17.10;99.90;;;;;;4991709;28;20038;-74
2023/08/06 03:09:17;;;;;;;6.50;1.92;;;16.90;99.90;;;;;;4993338;28;20054;-74
2023/08/06 03:11:43;;;;;;;2.03;0.95;;;16.90;99.90;;;;;;4992895;28;20030;-74
2023/08/06 03:14:09;;;;;;;3.38;0.85;;;16.90;99.90;;;;;;4986034;28;20037;-73
2023/08/06 03:16:34;;;;;;;1.75;1.00;;;17.00;99.90;;;;;;4986170;28;20664;-74
2023/08/06 03:19:00;;;;;;;3.42;0.80;;;17.10;99.90;;;;;;4987884;28;20041;-74
2023/08/06 03:21:26;;;;;;;2.33;0.95;;;17.30;99.90;;;;;;4983161;28;20496;-74
2023/08/06 03:23:51;;;;;;;2.50;1.00;;;17.30;99.90;;;;;;4986312;28;20033;-73
2023/08/06 03:26:17;;;;;;;2.63;0.90;;;17.30;99.90;;;;;;4989695;28;20092;-73
2023/08/06 03:28:43;;;;;;;3.28;0.95;;;17.30;99.90;;;;;;4992693;28;20066;-73
2023/08/06 03:31:09;;;;;;;2.00;0.90;;;17.10;99.90;;;;;;4987394;28;20539;-73
2023/08/06 03:33:34;;;;;;;2.22;0.70;;;17.20;99.90;;;;;;4989691;28;20026;-74
2023/08/06 03:36:00;;;;;;;2.22;0.60;;;17.30;99.90;;;;;;4993745;28;20066;-73
2023/08/06 03:38:26;;;;;;;3.63;1.00;;;17.20;99.90;;;;;;4994842;28;20049;-74
2023/08/06 03:40:52;;;;;;;2.22;0.80;;;17.20;99.90;;;;;;4991505;28;20069;-74
2023/08/06 03:43:17;;;;;;;2.92;0.80;;;17.20;99.90;;;;;;4988292;28;20522;-74
2023/08/06 03:45:43;;;;;;;1.77;0.68;;;17.30;99.90;;;;;;4989288;28;20030;-74
2023/08/06 03:48:09;;;;;;;2.55;0.80;;;17.20;99.90;;;;;;4993132;28;20030;-73
2023/08/06 03:50:35;;;;;;;2.40;1.00;;;17.10;99.90;;;;;;4989830;28;20525;-74
2023/08/06 03:53:01;;;;;;;2.40;1.20;;;16.90;99.90;;;;;;4989621;28;20563;-74
2023/08/06 03:55:27;;;;;;;2.60;0.82;;;16.90;99.90;;;;;;4991101;28;20472;-74
2023/08/06 03:57:53;;;;;;;2.88;1.05;;;17.10;99.90;;;;;;4985930;28;20034;-74
2023/08/06 04:00:19;;;;;;;2.92;0.90;;;17.00;99.90;;;;;;4982539;28;21138;-73
2023/08/06 04:02:44;;;;;;;2.05;0.88;;;16.90;99.90;;;;;;4988070;28;20038;-74
2023/08/06 04:05:10;;;;;;;1.88;0.90;;;16.70;99.90;;;;;;4985716;28;20022;-74
2023/08/06 04:07:36;;;;;;;1.88;0.73;;;16.50;99.90;;;;;;4983146;28;20026;-73
2023/08/06 04:10:04;;;;;;;2.05;0.80;;;16.50;99.90;;;;;;4989999;28;20105;-73
2023/08/06 04:12:30;;;;;;;1.67;0.63;;;16.50;99.90;;;;;;4987521;28;20089;-73
2023/08/06 04:14:58;;;;;;;5.38;1.27;;;16.40;99.90;;;;;;4985279;28;20160;-73
2023/08/06 04:17:24;;;;;;;2.25;1.00;;;16.60;99.90;;;;;;4986771;28;20038;-73
2023/08/06 04:19:54;;;;;;;3.45;0.80;;;16.60;99.90;;;;;;4984642;28;20038;-73
2023/08/06 04:22:21;;;;;;;1.13;0.50;;;16.50;99.90;;;;;;4984730;28;20026;-74
2023/08/06 04:24:47;;;;;;;1.40;0.60;;;16.50;99.90;;;;;;4988717;28;20423;-73
2023/08/06 04:27:14;;;;;;;2.15;0.85;;;16.40;99.90;;;;;;4984223;28;20050;-73
2023/08/06 04:29:40;;;;;;;2.67;0.90;;;16.30;99.90;;;;;;4990835;28;20044;-74
2023/08/06 04:32:08;;;;;;;3.22;0.60;;;16.20;99.90;;;;;;4983969;28;20030;-73
2023/08/06 04:34:35;;;;;;;3.80;0.77;;;16.10;99.90;;;;;;4986040;28;20029;-74
2023/08/06 04:37:01;;;;;;;1.63;0.80;;;16.10;99.90;;;;;;4982017;28;20149;-74
2023/08/06 04:39:27;;;;;;;2.88;0.60;;;16.00;99.90;;;;;;4983824;28;20046;-74
2023/08/06 04:41:53;;;;;;;3.60;1.10;;;15.90;99.90;;;;;;4982851;28;20034;-73
2023/08/06 04:44:19;;;;;;;1.08;0.57;;;15.70;99.90;;;;;;4986261;28;20026;-73
2023/08/06 04:46:44;;;;;;;2.33;0.93;;;15.70;99.90;;;;;;4982561;28;20088;-73
2023/08/06 04:49:10;;;;;;;2.10;0.95;;;15.70;99.90;;;;;;4987195;28;20069;-74
2023/08/06 04:51:36;;;;;;;1.63;0.65;;;15.70;99.90;;;;;;4985067;28;20101;-73
2023/08/06 04:54:01;;;;;;;2.25;0.85;;;15.80;99.90;;;;;;4986264;28;20069;-74
2023/08/06 04:56:27;;;;;;;2.50;0.98;;;15.90;99.90;;;;;;4989570;28;20026;-73
2023/08/06 04:58:53;;;;;;;2.20;0.95;;;16.00;99.90;;;;;;4988432;28;20046;-74
2023/08/06 05:01:19;;;;;;;1.67;0.70;;;16.10;99.90;;;;;;4983932;28;20027;-73
2023/08/06 05:03:44;;;;;;;2.13;0.90;;;16.00;99.90;;;;;;4985646;28;20038;-74
2023/08/06 05:06:10;;;;;;;1.80;0.98;;;15.80;99.90;;;;;;4984984;28;20072;-74
2023/08/06 05:08:36;;;;;;;1.98;0.82;;;16.00;99.90;;;;;;4984150;28;20642;-74
2023/08/06 05:11:02;;;;;;;1.48;0.70;;;15.80;99.90;;;;;;4983074;28;20038;-73
2023/08/06 05:13:28;;;;;;;1.25;0.50;;;16.00;99.90;;;;;;4985554;28;20026;-74
2023/08/06 05:15:54;;;;;;;4.35;0.73;;;15.90;99.90;;;;;;4985378;28;20038;-74
2023/08/06 05:18:20;;;;;;;5.22;0.88;;;16.00;99.90;;;;;;4987717;28;20048;-74
2023/08/06 05:20:46;;;;;;;2.55;0.88;;;16.00;99.90;;;;;;4985657;28;20053;-74
2023/08/06 05:23:11;;;;;;;1.80;0.63;;;16.00;99.90;;;;;;4983970;28;20054;-74
2023/08/06 05:25:38;;;;;;;1.17;0.55;;;15.90;99.90;;;;;;4991396;28;20026;-74
2023/08/06 05:28:04;;;;;;;1.83;0.90;;;15.80;99.90;;;;;;4982367;28;20041;-74
2023/08/06 05:30:30;;;;;;;2.13;0.63;;;15.90;99.90;;;;;;4986758;28;20026;-74
2023/08/06 05:32:55;;;;;;;2.42;0.70;;;16.00;99.90;;;;;;4984054;28;20026;-74
2023/08/06 05:35:22;;;;;;;1.48;0.47;;;16.00;99.90;;;;;;4981645;28;20058;-74
2023/08/06 05:37:48;;;;;;;1.83;0.73;;;16.00;99.90;;;;;;4984103;28;20052;-73
2023/08/06 05:40:14;;;;;;;3.60;0.90;;;16.10;99.90;;;;;;4983475;28;20117;-73
2023/08/06 05:42:40;;;;;;;3.63;0.63;;;16.30;99.90;;;;;;4981927;28;20042;-74
2023/08/06 05:45:07;;;;;;;2.50;0.80;;;16.20;99.90;;;;;;4985490;28;20096;-73
2023/08/06 05:47:33;;;;;;;2.70;0.88;;;16.20;99.90;;;;;;4991244;28;20103;-73
2023/08/06 05:49:58;;;;;;;3.05;0.50;;;16.20;99.90;;;;;;4987492;28;20484;-74
2023/08/06 05:52:24;;;;;;;2.50;0.70;;;16.20;99.90;;;;;;4986590;28;20081;-73
2023/08/06 05:54:50;;;;;;;0.85;0.50;;;16.30;99.90;;;;;;4990256;28;20089;-74
2023/08/06 05:57:16;;;;;;;3.25;0.52;;;16.30;99.90;;;;;;4990482;28;20080;-74
2023/08/06 05:59:42;;;;;;;2.03;0.68;;;16.50;99.90;;;;;;4987473;28;20109;-74
2023/08/06 06:02:07;;;;;;;3.15;0.60;;;16.60;99.90;;;;;;4987042;28;20026;-74
2023/08/06 06:04:33;;;;;;;2.63;0.75;;;16.80;99.90;;;;;;4985078;28;20026;-74
2023/08/06 06:06:59;;;;;;;2.78;0.70;;;16.80;99.90;;;;;;4989387;28;20022;-74
2023/08/06 06:09:25;;;;;;;5.28;0.68;;;16.60;99.90;;;;;;4986957;28;20026;-74
2023/08/06 06:11:50;;;;;;;1.17;0.50;;;16.90;99.90;;;;;;4984500;28;20030;-74
2023/08/06 06:14:19;;;;;;;1.60;0.60;;;17.10;99.90;;;;;;4991574;28;20061;-74
2023/08/06 06:16:45;;;;;;;2.38;0.50;;;17.20;99.90;;;;;;4987420;28;20030;-74
2023/08/06 06:19:12;;;;;;;1.00;0.47;;;17.30;99.90;;;;;;4984165;28;20046;-74
2023/08/06 06:21:38;;;;;;;3.53;0.93;;;17.30;99.90;;;;;;4988577;28;20026;-73
2023/08/06 06:24:05;;;;;;;1.48;0.60;;;17.30;99.90;;;;;;4994479;28;21059;-73
2023/08/06 06:26:31;;;;;;;4.00;0.75;;;17.40;99.90;;;;;;4991261;28;20088;-73
2023/08/06 06:28:57;;;;;;;1.15;0.55;;;17.60;99.90;;;;;;4993000;28;20687;-73
2023/08/06 06:31:23;;;;;;;1.90;0.60;;;17.70;99.90;;;;;;4990298;28;20038;-75
2023/08/06 06:33:49;;;;;;;3.88;0.80;;;17.70;99.90;;;;;;4987681;28;20038;-74
2023/08/06 06:36:15;;;;;;;1.90;0.40;;;17.90;99.90;;;;;;4985736;28;20030;-74
2023/08/06 06:38:40;;;;;;;1.25;0.50;;;18.00;99.90;;;;;;4988202;28;20049;-74
2023/08/06 06:41:06;;;;;;;2.95;0.70;;;18.20;99.90;;;;;;4993628;28;20030;-74
2023/08/06 06:43:32;;;;;;;1.52;0.65;;;18.30;99.90;;;;;;4994644;28;20069;-73
2023/08/06 06:46:00;;;;;;;2.88;0.70;;;18.40;99.90;;;;;;4994921;28;20030;-74
2023/08/06 06:48:31;;;;;;;1.27;0.50;;;18.60;99.90;;;;;;4996164;28;21000;-75
2023/08/06 06:50:57;;;;;;;3.13;0.50;;;18.70;99.90;;;;;;4991884;28;20038;-73
2023/08/06 06:53:29;;;;;;;2.20;0.80;;;18.80;99.90;;;;;;4994864;28;20373;-74
2023/08/06 06:55:55;;;;;;;2.63;0.50;;;19.10;99.90;;;;;;4994656;28;20029;-74
2023/08/06 06:58:22;;;;;;;2.38;0.40;;;19.40;99.90;;;;;;4992770;28;20046;-73
2023/08/06 07:00:48;;;;;;;3.85;0.60;;;19.80;99.90;;;;;;4993566;28;20034;-73
2023/08/06 07:03:18;;;;;;;1.90;0.80;;;20.20;99.90;;;;;;4995121;28;20030;-73
2023/08/06 07:05:44;;;;;;;2.60;1.10;;;20.60;99.90;;;;;;4994067;28;20035;-74
2023/08/06 07:08:10;;;;;;;1.55;0.70;;;20.90;99.90;;;;;;4994469;28;20038;-74
2023/08/06 07:10:35;;;;;;;2.45;0.75;;;20.80;99.90;;;;;;4995915;28;20547;-75
2023/08/06 07:13:01;;;;;;;1.83;0.50;;;21.00;99.90;;;;;;4989232;28;20113;-75
2023/08/06 07:15:27;;;;;;;2.60;0.70;;;21.20;99.90;;;;;;4990145;28;20061;-74
2023/08/06 07:17:52;;;;;;;1.58;0.60;;;21.20;99.90;;;;;;4992888;28;20022;-74
2023/08/06 07:20:18;;;;;;;1.70;0.73;;;22.10;99.90;;;;;;4994414;28;20019;-75
2023/08/06 07:22:45;;;;;;;2.85;0.85;;;23.60;98.60;;;;;;4992198;28;20092;-74
2023/08/06 07:25:10;;;;;;;1.05;0.47;;;24.70;96.10;;;;;;4990780;28;20025;-75
2023/08/06 07:27:36;;;;;;;2.40;0.90;;;26.30;95.90;;;;;;4993223;28;20076;-75
2023/08/06 07:30:02;;;;;;;2.92;0.90;;;27.10;94.30;;;;;;4993584;28;20034;-74
2023/08/06 07:32:27;;;;;;;1.90;0.60;;;25.10;95.40;;;;;;4991009;28;20037;-75
2023/08/06 07:34:56;;;;;;;0.57;0.55;;;25.20;96.20;;;;;;4991132;28;20033;-75
2023/08/06 07:37:23;;;;;;;0.55;0.30;;;27.00;94.50;;;;;;4994227;28;20046;-74
2023/08/06 07:39:48;;;;;;;1.08;0.60;;;27.70;92.50;;;;;;4995963;28;20603;-75
2023/08/06 07:42:14;;;;;;;1.85;0.40;;;27.90;92.20;;;;;;4991165;28;20037;-74
2023/08/06 07:44:40;;;;;;;2.90;0.60;;;28.20;90.00;;;;;;4993230;28;20026;-75
2023/08/06 07:47:05;;;;;;;1.70;0.38;;;28.90;89.70;;;;;;4993483;28;20866;-75
2023/08/06 07:49:31;;;;;;;2.63;0.70;;;29.20;90.40;;;;;;4992187;28;20050;-74
2023/08/06 07:51:57;;;;;;;3.30;0.60;;;29.00;89.40;;;;;;4995512;28;20030;-74
2023/08/06 07:54:24;;;;;;;1.83;0.50;;;27.90;88.00;;;;;;4996138;28;20112;-75
2023/08/06 07:56:50;;;;;;;1.05;0.50;;;27.40;89.30;;;;;;4996623;28;20029;-75
2023/08/06 07:59:15;;;;;;;2.05;0.75;;;25.70;90.50;;;;;;4994034;28;20454;-75
2023/08/06 08:01:41;;;;;;;1.13;0.57;;;23.80;93.10;;;;;;4996704;28;20113;-75
2023/08/06 08:04:06;;;;;;;2.42;0.50;;;22.70;93.50;;;;;;4997795;28;20113;-74
2023/08/06 08:06:33;;;;;;;0.50;0.38;;;21.90;94.30;;;;;;4993010;28;20065;-75
2023/08/06 08:08:59;;;;;;;1.70;0.52;;;21.70;95.00;;;;;;4995619;28;20361;-75
2023/08/06 08:11:25;;;;;;;1.60;0.73;;;21.60;95.00;;;;;;4991638;28;20042;-74
2023/08/06 08:13:51;;;;;;;1.60;0.63;;;21.50;95.10;;;;;;4992260;28;20152;-74
2023/08/06 08:16:17;;;;;;;1.70;0.63;;;21.50;95.60;;;;;;4995237;28;20913;-75
2023/08/06 08:18:42;;;;;;;1.20;0.73;;;21.60;96.00;;;;;;4998553;28;20622;-75
2023/08/06 08:21:08;;;;;;;1.65;0.60;;;21.90;96.50;;;;;;5001613;28;20034;-75
2023/08/06 08:23:34;;;;;;;2.15;0.60;;;23.50;93.30;;;;;;5003460;28;20034;-74
2023/08/06 08:26:01;;;;;;;1.85;1.05;;;24.80;92.50;;;;;;5005046;28;20030;-74
2023/08/06 08:28:27;;;;;;;0.95;0.50;;;25.60;92.30;;;;;;5005952;28;20116;-75
2023/08/06 08:30:53;;;;;;;1.30;0.55;;;25.50;93.30;;;;;;5005251;28;20121;-74
2023/08/06 08:33:18;;;;;;;1.02;0.50;;;25.20;92.50;;;;;;5004324;28;20041;-74
2023/08/06 08:35:45;;;;;;;1.23;0.50;;;26.00;92.50;;;;;;5000867;28;20034;-75
2023/08/06 08:38:11;;;;;;;3.67;1.13;;;25.40;93.90;;;;;;5002730;28;20060;-74
2023/08/06 08:40:45;;;;;;;8.07;0.75;;;25.30;94.00;;;;;;4999040;28;20026;-74
2023/08/06 08:43:12;;;;;;;1.10;0.47;;;24.80;93.30;;;;;;5005396;28;20030;-74
2023/08/06 08:45:40;;;;;;;4.38;0.50;;;24.20;93.20;;;;;;5005246;28;20025;-74
2023/08/06 08:48:06;;;;;;;1.58;0.68;;;23.70;94.10;;;;;;5004505;28;20104;-75
2023/08/06 08:50:32;;;;;;;1.58;0.47;;;23.50;93.20;;;;;;5005367;28;20039;-74
2023/08/06 08:52:58;;;;;;;2.28;0.60;;;23.20;92.90;;;;;;5006500;28;20487;-75
2023/08/06 08:55:24;;;;;;;3.25;0.73;;;23.30;94.50;;;;;;5004715;28;20099;-75
2023/08/06 08:57:50;;;;;;;1.15;0.60;;;23.70;94.90;;;;;;5004137;28;20037;-75
2023/08/06 09:00:16;;;;;;;1.63;0.57;;;23.20;92.70;;;;;;5004451;28;20092;-75
2023/08/06 09:02:42;;;;;;;1.05;0.40;;;23.10;92.60;;;;;;5004884;28;20034;-75
2023/08/06 09:05:10;;;;;;;1.70;0.75;;;23.50;92.80;;;;;;5003900;28;20044;-74
2023/08/06 09:07:42;;;;;;;0.63;0.30;;;23.60;93.30;;;;;;5002669;28;20553;-74
2023/08/06 09:10:10;;;;;;;1.25;0.60;;;23.70;93.70;;;;;;5005522;28;20109;-74
2023/08/06 09:12:37;;;;;;;1.88;0.60;;;23.60;92.50;;;;;;5004281;28;20117;-75
2023/08/06 09:15:03;;;;;;;1.67;0.50;;;23.50;93.30;;;;;;5004274;28;20030;-75
2023/08/06 09:17:29;;;;;;;1.23;0.43;;;23.60;92.30;;;;;;4998915;28;20014;-76
2023/08/06 09:19:54;;;;;;;1.35;0.50;;;23.40;92.70;;;;;;4998784;28;20053;-75
2023/08/06 09:22:20;;;;;;;1.08;0.50;;;23.40;93.00;;;;;;4995336;28;20068;-75
2023/08/06 09:24:46;;;;;;;1.23;0.63;;;23.70;93.80;;;;;;4997918;28;20037;-76
2023/08/06 09:27:13;;;;;;;1.98;0.40;;;23.70;92.80;;;;;;4993899;28;20457;-75
2023/08/06 09:29:45;;;;;;;0.98;0.50;;;24.00;92.30;;;;;;4995190;28;20081;-74
2023/08/06 09:32:12;;;;;;;1.13;0.43;;;23.90;91.10;;;;;;4996175;28;21602;-75
2023/08/06 09:34:46;;;;;;;0.73;0.35;;;24.10;92.10;;;;;;4994731;28;20041;-74
2023/08/06 09:37:11;;;;;;;;;;;24.60;92.80;;;;;;4998464;28;20132;-75
2023/08/06 09:39:40;;;;;;;1.35;0.60;;;24.90;93.90;;;;;;4995517;28;20003;-74
2023/08/06 09:42:05;;;;;;;0.80;0.40;;;24.70;92.10;;;;;;4997940;28;20164;-74
2023/08/06 09:44:32;;;;;;;2.45;0.50;;;24.60;92.30;;;;;;4998545;28;20053;-75
2023/08/06 09:47:03;;;;;;;0.43;0.32;;;24.70;92.50;;;;;;4994441;28;20045;-74
2023/08/06 09:49:45;;;;;;;2.33;0.50;;;24.70;94.50;;;;;;4994849;28;20034;-74
2023/08/06 09:52:13;;;;;;;4.45;1.00;;;24.80;92.80;;;;;;4995716;28;20037;-75
2023/08/06 09:54:39;;;;;;;1.05;0.40;;;24.70;91.30;;;;;;4998398;28;20611;-75
2023/08/06 09:57:05;;;;;;;1.35;0.50;;;24.90;93.40;;;;;;4996489;28;20030;-74
2023/08/06 09:59:32;;;;;;;3.15;0.77;;;25.10;92.50;;;;;;4995685;28;20037;-75
2023/08/06 10:01:58;;;;;;;1.27;0.45;;;25.10;92.80;;;;;;4997619;28;20088;-75
2023/08/06 10:04:24;;;;;;;1.27;0.50;;;25.20;92.70;;;;;;4994955;28;20022;-75
2023/08/06 10:06:50;;;;;;;1.13;0.60;;;25.30;92.20;;;;;;4995061;28;20499;-75
2023/08/06 10:09:18;;;;;;;1.33;0.65;;;25.20;91.90;;;;;;4996706;28;20030;-74
2023/08/06 10:11:47;;;;;;;3.83;0.73;;;25.10;92.90;;;;;;4993984;28;20476;-75
2023/08/06 10:14:19;;;;;;;3.10;0.50;;;25.20;92.50;;;;;;4993411;28;20042;-75
2023/08/06 10:16:46;;;;;;;1.15;0.60;;;25.40;93.00;;;;;;4994333;28;20132;-75
2023/08/06 10:19:13;;;;;;;0.93;0.40;;;25.60;92.70;;;;;;4997833;28;20380;-75
2023/08/06 10:21:39;;;;;;;3.20;1.30;;;25.50;91.70;;;;;;4995889;28;20041;-75
2023/08/06 10:24:11;;;;;;;1.77;0.70;;;25.60;91.00;;;;;;4997688;28;20038;-74
2023/08/06 10:26:37;;;;;;;2.05;0.43;;;25.70;91.10;;;;;;4999476;28;20032;-74
2023/08/06 10:29:36;;;;;;;3.13;0.82;;;25.90;92.50;;;;;;4995569;28;20030;-73
2023/08/06 10:32:02;;;;;;;2.30;0.50;;;25.90;90.90;;;;;;4996807;28;20112;-74
2023/08/06 10:34:56;;;;;;;1.33;0.60;;;25.80;91.10;;;;;;4997549;28;20125;-73
2023/08/06 10:37:23;;;;;;;1.25;0.60;;;25.70;90.30;;;;;;4997520;28;20144;-73
2023/08/06 10:39:52;;;;;;;3.67;0.52;;;25.80;91.90;;;;;;4997716;28;20078;-73
2023/08/06 10:42:28;;;;;;;1.33;0.63;;;26.10;91.70;;;;;;4999731;28;20052;-73
2023/08/06 10:45:30;;;;;;;1.67;0.55;;;26.20;91.10;;;;;;4997917;28;20033;-73
2023/08/06 10:48:00;;;;;;;1.52;0.50;;;26.10;84.90;;;;;;4992963;28;20380;-73
2023/08/06 10:50:26;;;;;;;1.40;0.55;;;26.00;89.00;;;;;;4999264;28;20041;-74
2023/08/06 10:52:52;;;;;;;73.88;5.72;;;26.10;90.30;;;;;;4997602;28;20518;-74
2023/08/06 10:55:24;;;;;;;4.15;0.70;;;26.20;90.90;;;;;;4998093;28;20034;-73
2023/08/06 10:57:51;;;;;;;1.38;0.55;;;26.50;91.50;;;;;;4996658;28;20510;-74
2023/08/06 11:00:16;;;;;;;7.53;1.00;;;26.60;89.30;;;;;;4997461;28;20049;-73
2023/08/06 11:02:43;;;;;;;1.27;0.70;;;26.80;90.80;;;;;;4995348;28;20026;-74
2023/08/06 11:05:10;;;;;;;1.60;0.63;;;26.80;89.70;;;;;;4999668;28;20018;-74
2023/08/06 11:07:36;;;;;;;1.35;0.50;;;27.10;89.30;;;;;;4998476;28;20052;-73
2023/08/06 11:10:04;;;;;;;2.78;0.55;;;27.20;88.80;;;;;;4997657;28;20077;-74
2023/08/06 11:12:30;;;;;;;3.95;1.23;;;27.20;88.20;;;;;;4997235;28;20032;-74
2023/08/06 11:14:56;;;;;;;0.95;0.50;;;27.20;90.10;;;;;;4995322;28;20034;-74
2023/08/06 11:17:22;;;;;;;1.25;0.47;;;27.50;89.30;;;;;;4998079;28;20045;-74
2023/08/06 11:19:48;;;;;;;1.63;0.60;;;26.90;87.00;;;;;;4998312;28;20057;-74
2023/08/06 11:22:14;;;;;;;5.43;0.73;;;27.50;87.60;;;;;;4999832;28;20372;-74
2023/08/06 11:24:40;;;;;;;1.95;0.52;;;27.70;88.50;;;;;;4997606;28;20040;-74
2023/08/06 11:27:16;;;;;;;1.63;0.70;;;28.00;90.10;;;;;;4998277;28;20029;-74
2023/08/06 11:29:43;;;;;;;0.80;0.38;;;28.40;90.40;;;;;;5000341;28;20034;-74
2023/08/06 11:32:09;;;;;;;1.67;0.75;;;28.50;88.80;;;;;;4998704;28;20121;-73
2023/08/06 11:34:35;;;;;;;0.73;0.40;;;28.50;86.00;;;;;;4995002;28;20072;-74
2023/08/06 11:37:05;;;;;;;2.30;0.60;;;28.40;84.10;;;;;;4997869;28;20132;-74
2023/08/06 11:39:34;;;;;;;1.63;0.28;;;28.00;84.80;;;;;;4998143;28;20501;-73
2023/08/06 11:42:02;;;;;;;2.17;0.60;;;28.30;84.80;;;;;;4995293;28;20401;-74
2023/08/06 11:44:34;;;;;;;1.02;0.55;;;28.40;84.40;;;;;;4996638;28;20032;-73
2023/08/06 11:47:04;;;;;;;1.33;0.50;;;27.90;84.00;;;;;;4994591;28;20033;-74
2023/08/06 11:49:46;;;;;;;3.45;0.90;;;28.00;88.20;;;;;;4995206;28;20032;-73
2023/08/06 11:52:19;;;;;;;2.03;0.47;;;28.20;87.00;;;;;;4997385;28;20081;-74
2023/08/06 11:55:10;;;;;;;0.95;0.52;;;28.30;84.30;;;;;;4997471;28;20033;-74
2023/08/06 11:57:37;;;;;;;0.95;0.40;;;28.30;83.40;;;;;;4997105;28;20034;-74
2023/08/06 12:00:23;;;;;;;1.27;0.57;;;28.50;84.00;;;;;;4998228;28;20669;-73
2023/08/06 12:02:52;;;;;;;1.05;0.50;;;28.40;85.00;;;;;;4998105;28;20451;-74
2023/08/06 12:05:23;;;;;;;0.60;0.38;;;28.70;84.70;;;;;;4998000;28;20040;-73
2023/08/06 12:07:51;;;;;;;2.60;0.50;;;28.70;82.30;;;;;;4996909;28;20030;-74
2023/08/06 12:10:19;;;;;;;1.60;0.60;;;28.80;84.10;;;;;;4997702;28;20474;-74
2023/08/06 12:12:45;;;;;;;2.05;0.80;;;28.70;79.30;;;;;;4993173;28;20030;-74
2023/08/06 12:15:11;;;;;;;1.55;0.85;;;28.90;82.00;;;;;;4997235;28;20422;-73
2023/08/06 12:17:37;;;;;;;1.42;0.60;;;28.70;85.70;;;;;;4996249;28;20092;-74
2023/08/06 12:20:04;;;;;;;1.20;0.50;;;27.50;80.40;;;;;;4996764;28;20709;-73
2023/08/06 12:22:35;;;;;;;2.72;0.68;;;26.70;80.10;;;;;;4995872;28;20034;-73
2023/08/06 12:25:08;;;;;;;1.15;0.52;;;26.30;79.70;;;;;;4995808;28;20628;-74
2023/08/06 12:27:38;;;;;;;1.52;0.70;;;26.00;79.30;;;;;;4995291;28;20030;-74
2023/08/06 12:30:05;;;;;;;1.10;0.60;;;25.70;80.80;;;;;;4996542;28;24915;-74
2023/08/06 12:32:30;;;;;;;1.30;0.45;;;25.60;82.80;;;;;;4997972;28;20088;-74
2023/08/06 12:34:56;;;;;;;6.88;1.42;;;25.50;84.60;;;;;;4994397;28;20049;-73
2023/08/06 12:37:23;;;;;;;1.38;0.60;;;25.30;87.90;;;;;;4996485;28;20054;-74
2023/08/06 12:39:48;;;;;;;3.03;0.73;;;25.10;87.10;;;;;;4995858;28;20030;-74
2023/08/06 12:42:14;;;;;;;3.50;0.77;;;25.10;83.60;;;;;;4995287;28;20022;-74
2023/08/06 12:44:40;;;;;;;2.58;0.85;;;25.00;90.30;;;;;;4996051;28;20037;-74
2023/08/06 12:47:07;;;;;;;1.42;0.50;;;24.60;87.20;;;;;;4997377;28;20037;-74